»·PEaware :: N55J KSNA-KBUR

N55J :: KSNA-KBUR

FLIGHT INFORMATION

Flight Status: Arrived
Operator: Privately registered:
United States
More flights under this callsign
Pilot: Justin V. (22880)
Aircraft: CESSNA T210 TURBO CENTURION
(T210)
More flights by this aircraft type
Origin: KSNA John Wayne-Orange Co
United States
Destination: KBUR Bob Hope-Burbank
United States
More flights between these airports :: More routes between these airports
Route: SLI V23 POPPR SMO125R SMO SMO311R SILEX
File this flight plan on PilotEdge
Remarks: TEC route CSTP1 / I-3 RATING
Altitude:
(Current/Filed)
4,000ft
Speed:
(Current/Filed)
150kts
Departed: 01-Feb-19 11:35 AM
Arrived: 01-Feb-19 12:09 PM
Distance/Time
Traveled:
40nm/0:34
Distance/Time
To Go:
Arrived

Flight Plot

Page will automatically refresh every two minutes.


Map Options




Map Legend


Flown Route
Filed Route
Departure Airport
Arrival Airport
Navaid (VOR, NDB)
Fix

Horizontal Profiles

Position Reports

Time Latitude Longitude Heading Altitude Ground
Speed
01-Feb-19 11:20 33.672474 -117.867199 210 60ft 0kts
01-Feb-19 11:21 33.672474 -117.867199 210 60ft 0kts
01-Feb-19 11:22 33.672473 -117.867199 210 60ft 0kts
01-Feb-19 11:23 33.672473 -117.867199 210 60ft 0kts
01-Feb-19 11:24 33.672473 -117.867199 210 60ft 0kts
01-Feb-19 11:25 33.672473 -117.867199 210 60ft 0kts
01-Feb-19 11:26 33.672473 -117.867199 210 60ft 0kts
01-Feb-19 11:27 33.672473 -117.867199 210 60ft 0kts
01-Feb-19 11:28 33.672435 -117.867254 254 60ft 0kts
01-Feb-19 11:29 33.672435 -117.867254 254 60ft 0kts
01-Feb-19 11:30 33.672436 -117.867299 284 60ft 0kts
01-Feb-19 11:31 33.673012 -117.867350 48 60ft 13kts
01-Feb-19 11:32 33.676943 -117.865302 28 60ft 22kts
01-Feb-19 11:33 33.679965 -117.863625 295 60ft 0kts
01-Feb-19 11:34 33.676540 -117.866455 208 84ft 78kts
01-Feb-19 11:35 33.656415 -117.886855 221 1361ft 106kts
01-Feb-19 11:36 33.646803 -117.917998 303 2485ft 117kts
01-Feb-19 11:37 33.672859 -117.945650 320 3668ft 123kts
01-Feb-19 11:38 33.702482 -117.974068 319 4025ft 158kts
01-Feb-19 11:40 33.737757 -118.009544 319 4017ft 168kts
01-Feb-19 11:41 33.774189 -118.045656 319 4018ft 170kts
01-Feb-19 11:42 33.793774 -118.096084 285 4018ft 169kts
01-Feb-19 11:43 33.807514 -118.150369 287 4018ft 168kts
01-Feb-19 11:44 33.821276 -118.203869 286 4018ft 166kts
01-Feb-19 11:45 33.834492 -118.256992 286 4018ft 168kts
01-Feb-19 11:46 33.855483 -118.304659 318 4014ft 169kts
01-Feb-19 11:47 33.892599 -118.339718 321 4019ft 169kts
01-Feb-19 11:48 33.928991 -118.375707 320 4016ft 167kts
01-Feb-19 11:49 33.963752 -118.410096 320 4019ft 167kts
01-Feb-19 11:50 33.999632 -118.445965 319 4018ft 166kts
01-Feb-19 11:51 34.035037 -118.482102 319 4016ft 167kts
01-Feb-19 11:52 34.073257 -118.513987 326 4018ft 167kts
01-Feb-19 11:53 34.111731 -118.545824 324 4018ft 168kts
01-Feb-19 11:54 34.151189 -118.576648 329 4015ft 168kts
01-Feb-19 11:55 34.191565 -118.604816 328 4019ft 168kts
01-Feb-19 11:56 34.211266 -118.650887 270 4016ft 168kts
01-Feb-19 11:57 34.211672 -118.707398 269 4019ft 167kts
01-Feb-19 11:58 34.186887 -118.746582 180 4023ft 168kts
01-Feb-19 11:58 34.161597 -118.716826 91 4021ft 167kts
01-Feb-19 11:59 34.180545 -118.665959 50 4019ft 169kts
01-Feb-19 12:00 34.201949 -118.617790 92 3744ft 159kts
01-Feb-19 12:01 34.200461 -118.571949 90 3414ft 134kts
01-Feb-19 12:02 34.199889 -118.527681 90 3011ft 117kts
01-Feb-19 12:04 34.199407 -118.490982 90 2799ft 95kts
01-Feb-19 12:05 34.198995 -118.458381 90 2278ft 97kts
01-Feb-19 12:05 34.198773 -118.431178 90 1835ft 97kts
01-Feb-19 12:06 34.198469 -118.399081 90 1352ft 92kts
01-Feb-19 12:07 34.197905 -118.368532 96 799ft 77kts
01-Feb-19 12:08 34.198581 -118.360265 351 781ft 0kts
01-Feb-19 12:09 34.199897 -118.358951 78 781ft 11kts
01-Feb-19 12:10 34.200214 -118.358831 253 781ft 0kts
01-Feb-19 12:11 34.200214 -118.358831 253 781ft 0kts
01-Feb-19 12:12 34.200214 -118.358831 253 781ft 0kts
01-Feb-19 12:13 34.200214 -118.358831 253 781ft 0kts
01-Feb-19 12:14 34.200214 -118.358831 253 781ft 0kts
01-Feb-19 12:15 34.200214 -118.358831 253 781ft 0kts
01-Feb-19 12:16 34.200214 -118.358831 253 781ft 0kts
01-Feb-19 12:17 34.200214 -118.358831 253 781ft 0kts
01-Feb-19 12:18 34.200214 -118.358831 253 781ft 0kts
01-Feb-19 12:19 34.200214 -118.358831 253 781ft 0kts
01-Feb-19 12:20 34.200214 -118.358831 253 781ft 0kts
01-Feb-19 12:21 34.200214 -118.358831 253 781ft 0kts
01-Feb-19 12:22 34.200214 -118.358831 253 781ft 0kts
01-Feb-19 12:23 34.200214 -118.358831 253 781ft 0kts

Navigation Log

Ident Type
Flight plan parsing failed, navigation log unavailable